createdAt,value
2024-05-09T00:00:35.299Z,4.10
2024-05-09T00:03:05.659Z,3.93
2024-05-09T00:05:32.438Z,4.05
2024-05-09T00:07:59.095Z,4.20
2024-05-09T00:10:33.476Z,4.05
2024-05-09T00:13:06.899Z,4.07
2024-05-09T00:15:34.343Z,4.10
2024-05-09T00:18:01.677Z,3.90
2024-05-09T00:20:36.575Z,3.78
2024-05-09T00:23:06.451Z,3.60
2024-05-09T00:25:32.994Z,3.97
2024-05-09T00:27:59.523Z,4.00
2024-05-09T00:30:34.272Z,4.03
2024-05-09T00:33:03.791Z,3.75
2024-05-09T00:35:31.057Z,4.47
2024-05-09T00:37:57.818Z,4.00
2024-05-09T00:40:34.763Z,3.43
2024-05-09T00:43:05.610Z,3.60
2024-05-09T00:45:35.167Z,4.50
2024-05-09T00:48:03.847Z,3.97
2024-05-09T00:50:36.355Z,3.95
2024-05-09T00:53:05.106Z,3.53
2024-05-09T00:55:32.081Z,3.90
2024-05-09T00:57:58.787Z,4.90
2024-05-09T01:00:31.765Z,3.92
2024-05-09T01:03:08.231Z,3.50
2024-05-09T01:05:37.724Z,3.70
2024-05-09T01:08:05.365Z,4.05
2024-05-09T01:10:34.901Z,3.65
2024-05-09T01:13:03.042Z,3.60
2024-05-09T01:15:29.620Z,3.53
2024-05-09T01:17:57.677Z,3.80
2024-05-09T01:20:37.217Z,3.67
2024-05-09T01:23:12.657Z,3.95
2024-05-09T01:25:40.271Z,3.67
2024-05-09T01:28:07.174Z,4.10
2024-05-09T01:30:36.278Z,3.20
2024-05-09T01:33:05.410Z,3.80
2024-05-09T01:35:33.224Z,3.65
2024-05-09T01:38:00.236Z,3.50
2024-05-09T01:40:37.093Z,3.75
2024-05-09T01:43:07.122Z,3.30
2024-05-09T01:45:33.793Z,3.75
2024-05-09T01:48:00.908Z,3.72
2024-05-09T01:50:37.594Z,3.53
2024-05-09T01:53:08.061Z,3.88
2024-05-09T01:55:37.546Z,3.80
2024-05-09T01:58:04.681Z,3.47
2024-05-09T02:00:38.398Z,3.95
2024-05-09T02:03:08.345Z,3.80
2024-05-09T02:05:35.216Z,3.88
2024-05-09T02:08:01.950Z,4.00
2024-05-09T02:10:32.586Z,4.00
2024-05-09T02:13:02.648Z,3.75
2024-05-09T02:15:29.456Z,3.40
2024-05-09T02:17:56.345Z,3.80
2024-05-09T02:20:30.557Z,3.73
2024-05-09T02:23:02.550Z,3.63
2024-05-09T02:25:30.156Z,4.05
2024-05-09T02:27:56.788Z,3.25
2024-05-09T02:30:35.835Z,3.50
2024-05-09T02:33:07.329Z,3.40
2024-05-09T02:35:34.301Z,3.53
2024-05-09T02:38:01.406Z,4.00
2024-05-09T02:40:35.845Z,4.20
2024-05-09T02:43:04.866Z,3.60
2024-05-09T02:45:34.106Z,3.90
2024-05-09T02:48:01.479Z,3.90
2024-05-09T02:50:34.743Z,3.90
2024-05-09T02:53:05.677Z,3.42
2024-05-09T02:55:32.564Z,3.72
2024-05-09T02:57:59.277Z,3.67
2024-05-09T03:00:34.674Z,3.80
2024-05-09T03:03:10.393Z,3.58
2024-05-09T03:05:39.507Z,4.30
2024-05-09T03:08:07.107Z,4.63
2024-05-09T03:10:36.639Z,3.70
2024-05-09T03:13:06.223Z,3.70
2024-05-09T03:15:32.803Z,3.80
2024-05-09T03:17:59.847Z,4.18
2024-05-09T03:20:34.098Z,4.25
2024-05-09T03:23:02.493Z,3.47
2024-05-09T03:25:29.265Z,3.70
2024-05-09T03:27:55.852Z,3.80
2024-05-09T03:30:30.745Z,4.15
2024-05-09T03:33:09.837Z,3.92
2024-05-09T03:35:39.359Z,3.70
2024-05-09T03:38:06.013Z,3.90
2024-05-09T03:40:32.689Z,4.07
2024-05-09T03:42:59.327Z,3.40
2024-05-09T03:45:25.869Z,4.03
2024-05-09T03:47:52.971Z,4.27
2024-05-09T03:50:26.471Z,3.55
2024-05-09T03:53:02.795Z,3.65
2024-05-09T03:55:29.881Z,3.47
2024-05-09T03:57:57.286Z,4.13
2024-05-09T04:00:31.311Z,3.53
2024-05-09T04:03:05.529Z,3.80
2024-05-09T04:05:33.328Z,4.25
2024-05-09T04:08:02.692Z,3.65
2024-05-09T04:10:33.346Z,4.53
2024-05-09T04:13:01.761Z,3.50
2024-05-09T04:15:28.529Z,3.80
2024-05-09T04:17:55.337Z,3.65
2024-05-09T04:20:32.980Z,3.80
2024-05-09T04:23:10.655Z,4.00
2024-05-09T04:25:37.838Z,3.40
2024-05-09T04:28:05.374Z,3.55
2024-05-09T04:30:38.025Z,4.00
2024-05-09T04:33:09.326Z,3.85
2024-05-09T04:35:38.712Z,4.10
2024-05-09T04:38:08.445Z,3.50
2024-05-09T04:40:36.883Z,3.72
2024-05-09T04:43:04.750Z,3.70
2024-05-09T04:45:31.547Z,3.67
2024-05-09T04:47:58.577Z,3.95
2024-05-09T04:50:33.594Z,3.70
2024-05-09T04:53:05.016Z,3.70
2024-05-09T04:55:34.555Z,4.10
2024-05-09T04:58:01.167Z,4.22
2024-05-09T05:00:35.332Z,4.13
2024-05-09T05:03:04.618Z,3.77
2024-05-09T05:05:31.467Z,3.90
2024-05-09T05:07:58.270Z,4.47
2024-05-09T05:10:33.071Z,3.97
2024-05-09T05:13:04.982Z,4.22
2024-05-09T05:15:31.550Z,4.17
2024-05-09T05:17:58.240Z,3.88
2024-05-09T05:20:32.549Z,4.40
2024-05-09T05:23:00.898Z,4.22
2024-05-09T05:25:27.690Z,3.90
2024-05-09T05:27:54.319Z,4.10
2024-05-09T05:30:29.019Z,4.28
2024-05-09T05:33:00.331Z,4.65
2024-05-09T05:35:27.196Z,4.00
2024-05-09T05:37:53.986Z,4.20
2024-05-09T05:40:28.212Z,3.80
2024-05-09T05:43:02.171Z,4.43
2024-05-09T05:45:31.417Z,4.13
2024-05-09T05:47:58.120Z,4.53
2024-05-09T05:50:32.420Z,3.90
2024-05-09T05:53:02.846Z,3.87
2024-05-09T05:55:30.547Z,3.53
2024-05-09T05:57:57.280Z,3.35
2024-05-09T06:00:30.077Z,3.95
2024-05-09T06:03:07.585Z,3.78
2024-05-09T06:05:35.892Z,3.23
2024-05-09T06:08:02.645Z,3.40
2024-05-09T06:10:37.598Z,3.20
2024-05-09T06:13:07.280Z,3.38
2024-05-09T06:15:33.950Z,3.70
2024-05-09T06:18:01.039Z,3.40
2024-05-09T06:20:35.947Z,3.53
2024-05-09T06:23:05.377Z,3.60
2024-05-09T06:25:32.186Z,3.75
2024-05-09T06:28:00.435Z,3.63
2024-05-09T06:30:36.544Z,3.70
2024-05-09T06:33:07.306Z,3.95
2024-05-09T06:35:37.176Z,4.15
2024-05-09T06:38:04.357Z,4.30
2024-05-09T06:40:37.289Z,4.38
2024-05-09T06:43:10.699Z,3.73
2024-05-09T06:45:37.344Z,4.22
2024-05-09T06:48:04.796Z,4.22
2024-05-09T06:50:37.300Z,3.72
2024-05-09T06:53:08.697Z,4.75
2024-05-09T06:55:35.904Z,4.10
2024-05-09T06:58:03.914Z,4.40
2024-05-09T07:00:38.014Z,4.80
2024-05-09T07:03:08.191Z,5.03
2024-05-09T07:05:35.419Z,4.90
2024-05-09T07:08:02.129Z,4.90
2024-05-09T07:10:35.092Z,4.85
2024-05-09T07:13:02.954Z,4.63
2024-05-09T07:15:29.599Z,4.53
2024-05-09T07:17:56.312Z,4.82
2024-05-09T07:20:32.005Z,4.80
2024-05-09T07:23:02.814Z,4.63
2024-05-09T07:25:32.364Z,4.82
2024-05-09T07:27:58.989Z,4.82
2024-05-09T07:30:32.844Z,4.20
2024-05-09T07:33:01.468Z,4.40
2024-05-09T07:35:28.810Z,4.22
2024-05-09T07:37:55.544Z,4.57
2024-05-09T07:40:31.852Z,4.10
2024-05-09T07:43:07.303Z,4.18
2024-05-09T07:52:23.421Z,4.50
2024-05-09T07:53:38.500Z,4.38
2024-05-09T07:56:07.046Z,4.60
2024-05-09T07:58:36.716Z,4.27
2024-05-09T08:01:03.455Z,4.65
2024-05-09T08:03:30.409Z,4.80
2024-05-09T08:05:57.028Z,4.50
2024-05-09T08:08:23.650Z,4.60
2024-05-09T08:10:50.505Z,4.30
2024-05-09T08:13:17.120Z,4.10
2024-05-09T08:15:46.351Z,4.65
2024-05-09T08:18:13.180Z,4.05
2024-05-09T08:20:40.633Z,4.30
2024-05-09T08:23:07.402Z,4.50
2024-05-09T08:25:34.079Z,4.60
2024-05-09T08:28:04.007Z,4.45
2024-05-09T08:30:36.481Z,4.22
2024-05-09T08:33:07.948Z,4.28
2024-05-09T08:35:35.154Z,4.50
2024-05-09T08:38:02.360Z,4.10
2024-05-09T08:40:34.449Z,4.30
2024-05-09T08:43:07.411Z,4.55
2024-05-09T08:45:35.043Z,4.35
2024-05-09T08:48:02.937Z,3.93
2024-05-09T08:50:38.462Z,4.18
2024-05-09T08:53:06.567Z,4.72
2024-05-09T08:55:33.455Z,4.80
2024-05-09T08:58:03.387Z,4.57
2024-05-09T09:00:36.720Z,4.80
2024-05-09T09:03:09.326Z,4.50
2024-05-09T09:05:39.903Z,4.40
2024-05-09T09:08:08.393Z,4.20
2024-05-09T09:10:35.595Z,4.40
2024-05-09T09:13:03.062Z,5.17
2024-05-09T09:15:29.958Z,4.35
2024-05-09T09:17:57.079Z,4.70
2024-05-09T09:20:29.510Z,4.45
2024-05-09T09:23:05.134Z,3.80
2024-05-09T09:25:32.168Z,4.10
2024-05-09T09:27:59.160Z,3.92
2024-05-09T09:30:34.966Z,4.00
2024-05-09T09:33:04.875Z,3.97
2024-05-09T09:35:31.784Z,4.15
2024-05-09T09:38:04.767Z,3.63
2024-05-09T09:40:37.093Z,3.85
2024-05-09T09:43:14.749Z,3.60
2024-05-09T09:45:43.126Z,3.67
2024-05-09T09:48:10.416Z,3.60
2024-05-09T09:50:38.288Z,3.00
2024-05-09T09:53:08.064Z,3.05
2024-05-09T09:55:37.088Z,3.28
2024-05-09T09:58:05.890Z,3.10
2024-05-09T10:00:34.450Z,3.00
2024-05-09T10:03:01.873Z,3.70
2024-05-09T10:05:29.461Z,3.20
2024-05-09T10:07:57.343Z,3.03
2024-05-09T10:10:31.868Z,3.20
2024-05-09T10:13:00.326Z,3.15
2024-05-09T10:15:27.434Z,3.60
2024-05-09T10:17:54.390Z,2.90
2024-05-09T10:20:25.024Z,3.60
2024-05-09T10:22:54.780Z,3.10
2024-05-09T10:25:21.670Z,2.83
2024-05-09T10:27:57.057Z,2.90
2024-05-09T10:30:29.840Z,3.33
2024-05-09T10:33:02.509Z,3.50
2024-05-09T10:35:31.937Z,2.97
2024-05-09T10:38:05.588Z,2.90
2024-05-09T10:40:32.667Z,3.10
2024-05-09T10:43:05.857Z,3.40
2024-05-09T10:45:35.198Z,3.38
2024-05-09T10:48:02.153Z,3.30
2024-05-09T10:50:33.676Z,4.25
2024-05-09T10:53:02.490Z,3.50
2024-05-09T10:55:29.164Z,3.20
2024-05-09T10:57:55.829Z,3.92
2024-05-09T11:00:35.379Z,3.22
2024-05-09T11:03:02.849Z,3.00
2024-05-09T11:05:29.690Z,2.70
2024-05-09T11:07:56.368Z,3.17
2024-05-09T11:10:27.878Z,2.83
2024-05-09T11:13:00.322Z,3.10
2024-05-09T11:15:37.724Z,2.97
2024-05-09T11:18:05.131Z,3.00
2024-05-09T11:20:35.506Z,2.60
2024-05-09T11:23:04.778Z,3.20
2024-05-09T11:25:31.551Z,2.63
2024-05-09T11:27:59.042Z,3.15
2024-05-09T11:30:31.561Z,3.33
2024-05-09T11:33:01.593Z,3.38
2024-05-09T11:35:28.241Z,2.97
2024-05-09T11:37:55.007Z,2.92
2024-05-09T11:40:25.697Z,2.90
2024-05-09T11:42:58.954Z,3.07
2024-05-09T11:45:25.621Z,3.05
2024-05-09T11:47:52.721Z,2.50
2024-05-09T11:50:27.335Z,2.63
2024-05-09T11:52:59.028Z,2.63
2024-05-09T11:55:28.039Z,2.77
2024-05-09T11:57:55.498Z,2.78
2024-05-09T12:00:29.645Z,2.83
2024-05-09T12:03:03.222Z,2.50
2024-05-09T12:05:32.626Z,2.45
2024-05-09T12:07:59.989Z,2.50
2024-05-09T12:10:33.014Z,2.70
2024-05-09T12:13:02.900Z,2.90
2024-05-09T12:15:30.422Z,2.80
2024-05-09T12:17:59.929Z,2.58
2024-05-09T12:20:35.498Z,2.43
2024-05-09T12:23:10.199Z,2.60
2024-05-09T12:25:37.452Z,2.33
2024-05-09T12:28:04.656Z,2.40
2024-05-09T12:30:36.806Z,2.45
2024-05-09T12:33:07.147Z,2.00
2024-05-09T12:35:33.849Z,2.17
2024-05-09T12:38:00.555Z,2.10
2024-05-09T12:40:35.860Z,2.50
2024-05-09T12:43:06.021Z,2.30
2024-05-09T12:45:32.870Z,2.00
2024-05-09T12:47:59.662Z,2.10
2024-05-09T12:50:32.370Z,2.30
2024-05-09T12:53:01.470Z,2.10
2024-05-09T12:55:37.322Z,2.15
2024-05-09T12:58:11.352Z,1.80
2024-05-09T13:00:38.267Z,1.88
2024-05-09T13:03:05.448Z,1.90
2024-05-09T13:05:32.276Z,2.47
2024-05-09T13:07:59.200Z,2.22
2024-05-09T13:10:31.801Z,2.17
2024-05-09T13:13:02.486Z,2.10
2024-05-09T13:15:29.403Z,2.13
2024-05-09T13:17:59.533Z,2.20
2024-05-09T13:20:33.062Z,2.10
2024-05-09T13:23:03.089Z,2.30
2024-05-09T13:25:29.774Z,1.98
2024-05-09T13:27:56.839Z,2.10
2024-05-09T13:30:34.332Z,1.83
2024-05-09T13:33:07.013Z,2.13
2024-05-09T13:35:34.128Z,2.07
2024-05-09T13:38:00.927Z,2.08
2024-05-09T13:40:33.300Z,2.15
2024-05-09T13:43:02.645Z,2.10
2024-05-09T13:45:32.074Z,1.90
2024-05-09T13:47:58.968Z,1.60
2024-05-09T13:50:33.283Z,2.00
2024-05-09T13:53:02.880Z,1.80
2024-05-09T13:55:29.537Z,1.80
2024-05-09T13:57:56.725Z,1.98
2024-05-09T14:00:37.728Z,1.90
2024-05-09T14:03:13.581Z,2.05
2024-05-09T14:05:40.391Z,2.08
2024-05-09T14:08:07.322Z,2.05
2024-05-09T14:10:34.959Z,2.10
2024-05-09T14:13:01.782Z,1.73
2024-05-09T14:15:28.651Z,2.00
2024-05-09T14:17:55.671Z,2.00
2024-05-09T14:20:31.047Z,2.10
2024-05-09T14:22:59.009Z,2.10
2024-05-09T14:25:27.471Z,2.07
2024-05-09T14:27:54.317Z,2.00
2024-05-09T14:30:30.199Z,2.08
2024-05-09T14:33:02.826Z,2.22
2024-05-09T14:35:32.150Z,2.30
2024-05-09T14:37:58.767Z,2.10
2024-05-09T14:40:36.911Z,2.35
2024-05-09T14:43:08.379Z,2.17
2024-05-09T14:45:35.295Z,2.00
2024-05-09T14:48:02.492Z,2.20
2024-05-09T14:50:35.809Z,2.30
2024-05-09T14:53:09.019Z,2.17
2024-05-09T14:55:37.710Z,2.42
2024-05-09T14:58:06.568Z,1.90
2024-05-09T15:00:36.264Z,2.47
2024-05-09T15:03:04.601Z,2.13
2024-05-09T15:05:31.227Z,1.80
2024-05-09T15:07:58.525Z,1.90
2024-05-09T15:10:34.501Z,1.88
2024-05-09T15:13:03.437Z,1.90
2024-05-09T15:15:30.236Z,1.80
2024-05-09T15:17:57.152Z,1.88
2024-05-09T15:20:30.748Z,1.90
2024-05-09T15:23:01.795Z,1.90
2024-05-09T15:25:31.130Z,2.28
2024-05-09T15:27:57.977Z,2.10
2024-05-09T15:30:30.769Z,2.08
2024-05-09T15:32:59.856Z,2.00
2024-05-09T15:35:26.598Z,2.00
2024-05-09T15:37:53.253Z,2.00
2024-05-09T15:40:30.415Z,1.70
2024-05-09T15:43:07.601Z,2.10
2024-05-09T15:45:34.982Z,2.00
2024-05-09T15:48:02.200Z,2.10
2024-05-09T15:50:36.628Z,2.30
2024-05-09T15:53:07.576Z,2.10
2024-05-09T15:55:35.193Z,2.00
2024-05-09T15:58:03.150Z,2.03
2024-05-09T16:00:38.574Z,1.90
2024-05-09T16:03:09.006Z,2.03
2024-05-09T16:05:36.185Z,2.10
2024-05-09T16:08:03.140Z,2.15
2024-05-09T16:10:33.027Z,2.00
2024-05-09T16:13:01.464Z,2.08
2024-05-09T16:15:28.412Z,2.20
2024-05-09T16:17:57.718Z,1.90
2024-05-09T16:22:53.882Z,1.90
2024-05-09T16:25:20.493Z,2.00
2024-05-09T16:27:47.417Z,2.25
2024-05-09T16:30:21.319Z,1.93
2024-05-09T16:32:57.494Z,2.35
2024-05-09T16:35:24.175Z,2.13
2024-05-09T16:37:50.786Z,2.30
2024-05-09T16:40:25.477Z,2.35
2024-05-09T16:43:03.432Z,2.10
2024-05-09T16:45:30.279Z,1.90
2024-05-09T16:48:00.310Z,1.80
2024-05-09T16:50:32.344Z,2.17
2024-05-09T16:53:01.194Z,1.90
2024-05-09T16:55:27.968Z,1.90
2024-05-09T16:57:56.410Z,2.13
2024-05-09T17:00:34.849Z,2.13
2024-05-09T17:03:12.914Z,1.77
2024-05-09T17:05:41.068Z,2.15
2024-05-09T17:08:08.656Z,1.90
2024-05-09T17:10:35.731Z,2.20
2024-05-09T17:13:03.227Z,2.00
2024-05-09T17:15:30.945Z,2.08
2024-05-09T17:17:57.715Z,2.47
2024-05-09T17:20:33.030Z,2.00
2024-05-09T17:23:03.767Z,2.20
2024-05-09T17:25:30.526Z,2.10
2024-05-09T17:27:57.422Z,1.98
2024-05-09T17:30:29.339Z,2.10
2024-05-09T17:33:02.545Z,2.20
2024-05-09T17:35:32.233Z,2.17
2024-05-09T17:37:59.102Z,2.00
2024-05-09T17:40:31.554Z,1.90
2024-05-09T17:43:02.302Z,1.90
2024-05-09T17:45:29.274Z,2.37
2024-05-09T17:47:56.073Z,2.28
2024-05-09T17:50:30.261Z,2.30
2024-05-09T17:53:04.313Z,2.30
2024-05-09T17:55:31.122Z,2.70
2024-05-09T17:57:58.093Z,2.00
2024-05-09T18:00:36.235Z,1.90
2024-05-09T18:03:06.679Z,2.55
2024-05-09T18:05:35.055Z,2.30
2024-05-09T18:08:05.333Z,2.20
2024-05-09T18:10:36.778Z,1.80
2024-05-09T18:13:06.818Z,2.10
2024-05-09T18:15:34.235Z,2.00
2024-05-09T18:18:02.033Z,2.45
2024-05-09T18:20:37.903Z,2.00
2024-05-09T18:23:14.098Z,1.77
2024-05-09T18:25:41.529Z,2.00
2024-05-09T18:28:08.323Z,2.17
2024-05-09T18:30:36.762Z,2.20
2024-05-09T18:33:05.410Z,2.17
2024-05-09T18:35:33.411Z,2.17
2024-05-09T18:38:00.526Z,2.10
2024-05-09T18:40:34.458Z,2.20
2024-05-09T18:43:05.485Z,2.50
2024-05-09T18:45:33.569Z,2.00
2024-05-09T18:48:00.492Z,2.00
2024-05-09T18:50:34.654Z,1.88
2024-05-09T18:53:05.505Z,2.25
2024-05-09T18:55:34.628Z,2.20
2024-05-09T18:58:01.339Z,4.10
2024-05-09T19:00:34.620Z,3.70
2024-05-09T19:03:06.185Z,3.33
2024-05-09T19:05:34.268Z,3.53
2024-05-09T19:08:02.634Z,4.95
2024-05-09T19:10:34.219Z,5.70
2024-05-09T19:13:11.871Z,5.10
2024-05-09T19:15:41.256Z,6.53
2024-05-09T19:18:09.602Z,5.93
2024-05-09T19:20:37.255Z,7.60
2024-05-09T19:23:06.846Z,4.88
2024-05-09T19:25:34.612Z,4.27
2024-05-09T19:28:01.629Z,3.80
2024-05-09T19:30:38.540Z,3.50
2024-05-09T19:33:08.763Z,3.20
2024-05-09T19:35:35.940Z,3.10
2024-05-09T19:38:02.740Z,2.93
2024-05-09T19:40:32.227Z,3.20
2024-05-09T19:43:00.736Z,3.55
2024-05-09T19:45:30.192Z,3.63
2024-05-09T19:47:57.346Z,3.55
2024-05-09T19:50:32.147Z,3.70
2024-05-09T19:53:06.480Z,3.53
2024-05-09T19:55:33.139Z,3.33
2024-05-09T19:58:03.623Z,3.35
2024-05-09T20:00:36.546Z,3.10
2024-05-09T20:03:05.893Z,3.13
2024-05-09T20:05:33.283Z,3.22
2024-05-09T20:08:00.086Z,3.10
2024-05-09T20:10:31.706Z,3.40
2024-05-09T20:13:00.627Z,3.67
2024-05-09T20:15:27.407Z,3.90
2024-05-09T20:17:56.954Z,4.38
2024-05-09T20:20:32.627Z,5.10
2024-05-09T20:23:04.802Z,5.40
2024-05-09T20:25:31.352Z,5.82
2024-05-09T20:27:58.071Z,5.47
2024-05-09T20:30:31.374Z,5.50
2024-05-09T20:33:04.120Z,5.72
2024-05-09T20:35:32.141Z,5.70
2024-05-09T20:37:59.305Z,4.90
2024-05-09T20:40:31.973Z,5.00
2024-05-09T20:43:02.277Z,4.65
2024-05-09T20:45:28.931Z,4.55
2024-05-09T20:47:55.825Z,4.28
2024-05-09T20:50:35.616Z,4.50
2024-05-09T20:53:08.231Z,4.07
2024-05-09T20:55:34.904Z,4.00
2024-05-09T20:58:01.505Z,4.63
2024-05-09T21:00:35.426Z,4.82
2024-05-09T21:03:07.292Z,4.95
2024-05-09T21:05:36.974Z,4.80
2024-05-09T21:08:04.228Z,4.90
2024-05-09T21:10:33.305Z,5.75
2024-05-09T21:13:01.361Z,6.65
2024-05-09T21:15:28.253Z,6.30
2024-05-09T21:17:55.005Z,6.63
2024-05-09T21:20:28.307Z,6.45
2024-05-09T21:23:00.204Z,5.38
2024-05-09T21:25:26.867Z,4.88
2024-05-09T21:27:53.632Z,4.80
2024-05-09T21:30:32.275Z,4.73
2024-05-09T21:33:08.133Z,4.43
2024-05-09T21:35:35.011Z,4.15
2024-05-09T21:38:04.630Z,4.68
2024-05-09T21:40:34.707Z,4.47
2024-05-09T21:43:03.125Z,4.20
2024-05-09T21:45:29.911Z,4.13
2024-05-09T21:47:56.787Z,4.13
2024-05-09T21:50:31.603Z,3.97
2024-05-09T21:53:07.997Z,3.75
2024-05-09T21:55:34.622Z,3.77
2024-05-09T21:58:01.458Z,3.80
2024-05-09T22:00:35.265Z,3.63
2024-05-09T22:03:05.210Z,3.75
2024-05-09T22:05:32.119Z,4.20
2024-05-09T22:07:59.298Z,3.80
2024-05-09T22:10:33.971Z,4.32
2024-05-09T22:13:02.686Z,4.60
2024-05-09T22:15:29.571Z,5.20
2024-05-09T22:17:57.446Z,4.82
2024-05-09T22:20:33.154Z,4.60
2024-05-09T22:23:03.634Z,4.57
2024-05-09T22:25:33.145Z,5.20
2024-05-09T22:28:00.710Z,4.88
2024-05-09T22:30:34.822Z,4.95
2024-05-09T22:33:06.065Z,5.00
2024-05-09T22:35:32.907Z,4.72
2024-05-09T22:37:59.562Z,4.97
2024-05-09T22:40:38.082Z,4.43
2024-05-09T22:43:17.152Z,4.78
2024-05-09T22:45:44.043Z,4.50
2024-05-09T22:48:10.882Z,4.80
2024-05-09T22:50:37.543Z,4.70
2024-05-09T22:53:04.497Z,4.15
2024-05-09T22:55:31.065Z,4.45
2024-05-09T22:57:57.776Z,4.60
2024-05-09T23:00:31.647Z,4.20
2024-05-09T23:03:00.082Z,4.07
2024-05-09T23:05:27.112Z,4.53
2024-05-09T23:07:54.132Z,4.00
2024-05-09T23:10:27.931Z,3.93
2024-05-09T23:13:00.909Z,3.80
2024-05-09T23:15:30.449Z,3.95
2024-05-09T23:17:57.429Z,3.60
2024-05-09T23:22:54.026Z,3.57
2024-05-09T23:25:20.619Z,3.90
2024-05-09T23:27:47.310Z,4.30
2024-05-09T23:30:25.560Z,3.83
2024-05-09T23:33:01.926Z,4.07
2024-05-09T23:35:28.714Z,4.10
2024-05-09T23:37:55.292Z,3.92
2024-05-09T23:40:23.467Z,3.60
2024-05-09T23:42:50.749Z,3.80
2024-05-09T23:45:17.448Z,3.95
2024-05-09T23:47:44.032Z,3.57
2024-05-09T23:50:20.248Z,3.85
2024-05-09T23:52:50.345Z,4.00
2024-05-09T23:55:17.195Z,4.13
2024-05-09T23:57:43.894Z,4.20
